sensor_id;sensor_type;location;lat;lon;timestamp;P1;durP1;ratioP1;P2;durP2;ratioP2
56045;SDS011;41913;51.030;3.706;2023-06-10T00:02:10;3.13;;;2.70;;
56045;SDS011;41913;51.030;3.706;2023-06-10T00:04:36;2.38;;;2.28;;
56045;SDS011;41913;51.030;3.706;2023-06-10T00:07:04;4.22;;;3.10;;
56045;SDS011;41913;51.030;3.706;2023-06-10T00:09:39;2.80;;;2.60;;
56045;SDS011;41913;51.030;3.706;2023-06-10T00:12:06;2.60;;;2.50;;
56045;SDS011;41913;51.030;3.706;2023-06-10T00:14:36;2.97;;;2.60;;
56045;SDS011;41913;51.030;3.706;2023-06-10T00:17:04;2.88;;;2.78;;
56045;SDS011;41913;51.030;3.706;2023-06-10T00:19:30;2.45;;;2.35;;
56045;SDS011;41913;51.030;3.706;2023-06-10T00:21:56;3.35;;;3.20;;
56045;SDS011;41913;51.030;3.706;2023-06-10T00:24:22;2.92;;;2.83;;
56045;SDS011;41913;51.030;3.706;2023-06-10T00:26:48;2.92;;;2.72;;
56045;SDS011;41913;51.030;3.706;2023-06-10T00:29:14;3.00;;;2.80;;
56045;SDS011;41913;51.030;3.706;2023-06-10T00:31:40;3.00;;;2.88;;
56045;SDS011;41913;51.030;3.706;2023-06-10T00:34:06;2.88;;;2.70;;
56045;SDS011;41913;51.030;3.706;2023-06-10T00:36:32;3.10;;;2.90;;
56045;SDS011;41913;51.030;3.706;2023-06-10T00:38:58;3.03;;;2.83;;
56045;SDS011;41913;51.030;3.706;2023-06-10T00:41:23;2.97;;;2.60;;
56045;SDS011;41913;51.030;3.706;2023-06-10T00:43:51;2.95;;;2.83;;
56045;SDS011;41913;51.030;3.706;2023-06-10T00:46:17;4.25;;;3.40;;
56045;SDS011;41913;51.030;3.706;2023-06-10T00:48:43;2.67;;;2.58;;
56045;SDS011;41913;51.030;3.706;2023-06-10T00:51:10;3.60;;;3.40;;
56045;SDS011;41913;51.030;3.706;2023-06-10T00:53:36;2.72;;;2.63;;
56045;SDS011;41913;51.030;3.706;2023-06-10T00:56:05;3.80;;;3.55;;
56045;SDS011;41913;51.030;3.706;2023-06-10T00:58:31;3.00;;;2.90;;
56045;SDS011;41913;51.030;3.706;2023-06-10T01:00:57;3.20;;;3.10;;
56045;SDS011;41913;51.030;3.706;2023-06-10T01:03:23;3.95;;;3.65;;
56045;SDS011;41913;51.030;3.706;2023-06-10T01:05:50;3.50;;;3.25;;
56045;SDS011;41913;51.030;3.706;2023-06-10T01:08:40;3.88;;;3.75;;
56045;SDS011;41913;51.030;3.706;2023-06-10T01:11:14;3.55;;;3.28;;
56045;SDS011;41913;51.030;3.706;2023-06-10T01:13:46;3.55;;;3.20;;
56045;SDS011;41913;51.030;3.706;2023-06-10T01:16:16;4.22;;;3.72;;
56045;SDS011;41913;51.030;3.706;2023-06-10T01:18:43;3.67;;;3.47;;
56045;SDS011;41913;51.030;3.706;2023-06-10T01:21:12;4.00;;;3.70;;
56045;SDS011;41913;51.030;3.706;2023-06-10T01:23:39;3.33;;;3.08;;
56045;SDS011;41913;51.030;3.706;2023-06-10T01:26:07;3.42;;;3.22;;
56045;SDS011;41913;51.030;3.706;2023-06-10T01:31:22;3.83;;;3.55;;
56045;SDS011;41913;51.030;3.706;2023-06-10T01:33:59;3.67;;;3.38;;
56045;SDS011;41913;51.030;3.706;2023-06-10T01:36:25;4.68;;;3.42;;
56045;SDS011;41913;51.030;3.706;2023-06-10T01:38:52;3.70;;;3.50;;
56045;SDS011;41913;51.030;3.706;2023-06-10T01:41:18;3.50;;;3.40;;
56045;SDS011;41913;51.030;3.706;2023-06-10T01:43:47;4.13;;;3.83;;
56045;SDS011;41913;51.030;3.706;2023-06-10T01:46:14;3.95;;;3.65;;
56045;SDS011;41913;51.030;3.706;2023-06-10T01:48:43;4.38;;;4.07;;
56045;SDS011;41913;51.030;3.706;2023-06-10T01:51:09;3.10;;;3.00;;
56045;SDS011;41913;51.030;3.706;2023-06-10T01:53:34;3.70;;;3.40;;
56045;SDS011;41913;51.030;3.706;2023-06-10T01:56:00;4.32;;;4.03;;
56045;SDS011;41913;51.030;3.706;2023-06-10T01:58:26;4.30;;;3.88;;
56045;SDS011;41913;51.030;3.706;2023-06-10T02:00:51;3.90;;;3.70;;
56045;SDS011;41913;51.030;3.706;2023-06-10T02:03:17;3.22;;;3.13;;
56045;SDS011;41913;51.030;3.706;2023-06-10T02:05:44;3.83;;;3.60;;
56045;SDS011;41913;51.030;3.706;2023-06-10T02:08:10;3.78;;;3.55;;
56045;SDS011;41913;51.030;3.706;2023-06-10T02:10:35;4.75;;;4.35;;
56045;SDS011;41913;51.030;3.706;2023-06-10T02:13:02;4.10;;;3.92;;
56045;SDS011;41913;51.030;3.706;2023-06-10T02:15:28;3.13;;;3.03;;
56045;SDS011;41913;51.030;3.706;2023-06-10T02:17:53;4.13;;;3.83;;
56045;SDS011;41913;51.030;3.706;2023-06-10T02:20:19;4.47;;;4.18;;
56045;SDS011;41913;51.030;3.706;2023-06-10T02:22:46;4.38;;;4.07;;
56045;SDS011;41913;51.030;3.706;2023-06-10T02:25:11;3.88;;;3.67;;
56045;SDS011;41913;51.030;3.706;2023-06-10T02:27:38;3.60;;;3.40;;
56045;SDS011;41913;51.030;3.706;2023-06-10T02:30:04;4.20;;;3.92;;
56045;SDS011;41913;51.030;3.706;2023-06-10T02:32:30;4.28;;;3.97;;
56045;SDS011;41913;51.030;3.706;2023-06-10T02:34:56;4.03;;;3.83;;
56045;SDS011;41913;51.030;3.706;2023-06-10T02:37:24;3.53;;;3.22;;
56045;SDS011;41913;51.030;3.706;2023-06-10T02:39:50;4.47;;;4.18;;
56045;SDS011;41913;51.030;3.706;2023-06-10T02:42:16;4.53;;;4.22;;
56045;SDS011;41913;51.030;3.706;2023-06-10T02:44:41;4.53;;;4.22;;
56045;SDS011;41913;51.030;3.706;2023-06-10T02:47:08;4.30;;;4.05;;
56045;SDS011;41913;51.030;3.706;2023-06-10T02:49:33;4.97;;;4.57;;
56045;SDS011;41913;51.030;3.706;2023-06-10T02:51:59;4.32;;;4.13;;
56045;SDS011;41913;51.030;3.706;2023-06-10T02:54:25;4.57;;;4.28;;
56045;SDS011;41913;51.030;3.706;2023-06-10T02:56:51;4.53;;;4.15;;
56045;SDS011;41913;51.030;3.706;2023-06-10T02:59:17;4.45;;;4.18;;
56045;SDS011;41913;51.030;3.706;2023-06-10T03:01:43;4.28;;;4.00;;
56045;SDS011;41913;51.030;3.706;2023-06-10T03:04:09;3.97;;;3.80;;
56045;SDS011;41913;51.030;3.706;2023-06-10T03:06:35;4.75;;;4.32;;
56045;SDS011;41913;51.030;3.706;2023-06-10T03:09:03;5.03;;;4.25;;
56045;SDS011;41913;51.030;3.706;2023-06-10T03:11:29;4.18;;;3.88;;
56045;SDS011;41913;51.030;3.706;2023-06-10T03:13:55;5.05;;;4.57;;
56045;SDS011;41913;51.030;3.706;2023-06-10T03:16:21;4.40;;;4.13;;
56045;SDS011;41913;51.030;3.706;2023-06-10T03:18:48;4.68;;;4.38;;
56045;SDS011;41913;51.030;3.706;2023-06-10T03:21:14;5.32;;;4.85;;
56045;SDS011;41913;51.030;3.706;2023-06-10T03:23:39;4.68;;;4.25;;
56045;SDS011;41913;51.030;3.706;2023-06-10T03:26:05;4.80;;;4.50;;
56045;SDS011;41913;51.030;3.706;2023-06-10T03:28:31;4.35;;;4.05;;
56045;SDS011;41913;51.030;3.706;2023-06-10T03:30:57;4.45;;;4.10;;
56045;SDS011;41913;51.030;3.706;2023-06-10T03:33:23;4.72;;;4.43;;
56045;SDS011;41913;51.030;3.706;2023-06-10T03:35:48;4.93;;;4.50;;
56045;SDS011;41913;51.030;3.706;2023-06-10T03:38:14;5.45;;;4.95;;
56045;SDS011;41913;51.030;3.706;2023-06-10T03:40:41;4.93;;;4.63;;
56045;SDS011;41913;51.030;3.706;2023-06-10T03:43:07;5.93;;;4.22;;
56045;SDS011;41913;51.030;3.706;2023-06-10T03:45:33;5.25;;;4.20;;
56045;SDS011;41913;51.030;3.706;2023-06-10T03:47:59;5.80;;;5.15;;
56045;SDS011;41913;51.030;3.706;2023-06-10T03:50:26;4.78;;;4.50;;
56045;SDS011;41913;51.030;3.706;2023-06-10T03:52:51;5.15;;;4.63;;
56045;SDS011;41913;51.030;3.706;2023-06-10T03:55:17;4.57;;;4.18;;
56045;SDS011;41913;51.030;3.706;2023-06-10T03:57:43;4.88;;;4.50;;
56045;SDS011;41913;51.030;3.706;2023-06-10T04:00:09;5.25;;;4.85;;
56045;SDS011;41913;51.030;3.706;2023-06-10T04:02:37;4.50;;;4.20;;
56045;SDS011;41913;51.030;3.706;2023-06-10T04:05:06;4.75;;;4.30;;
56045;SDS011;41913;51.030;3.706;2023-06-10T04:07:32;5.88;;;4.75;;
56045;SDS011;41913;51.030;3.706;2023-06-10T04:09:59;3.97;;;3.70;;
56045;SDS011;41913;51.030;3.706;2023-06-10T04:12:25;5.00;;;4.70;;
56045;SDS011;41913;51.030;3.706;2023-06-10T04:14:50;4.38;;;4.15;;
56045;SDS011;41913;51.030;3.706;2023-06-10T04:17:17;5.07;;;4.68;;
56045;SDS011;41913;51.030;3.706;2023-06-10T04:19:42;5.47;;;4.35;;
56045;SDS011;41913;51.030;3.706;2023-06-10T04:22:08;5.15;;;4.75;;
56045;SDS011;41913;51.030;3.706;2023-06-10T04:24:34;4.57;;;4.28;;
56045;SDS011;41913;51.030;3.706;2023-06-10T04:27:00;5.28;;;4.95;;
56045;SDS011;41913;51.030;3.706;2023-06-10T04:29:27;4.45;;;4.15;;
56045;SDS011;41913;51.030;3.706;2023-06-10T04:31:53;5.88;;;5.38;;
56045;SDS011;41913;51.030;3.706;2023-06-10T04:34:18;5.45;;;4.95;;
56045;SDS011;41913;51.030;3.706;2023-06-10T04:36:44;5.40;;;4.88;;
56045;SDS011;41913;51.030;3.706;2023-06-10T04:39:10;7.13;;;5.18;;
56045;SDS011;41913;51.030;3.706;2023-06-10T04:41:36;4.75;;;4.45;;
56045;SDS011;41913;51.030;3.706;2023-06-10T04:44:02;5.03;;;4.72;;
56045;SDS011;41913;51.030;3.706;2023-06-10T04:46:27;4.70;;;4.40;;
56045;SDS011;41913;51.030;3.706;2023-06-10T04:48:55;5.03;;;4.72;;
56045;SDS011;41913;51.030;3.706;2023-06-10T04:51:21;5.68;;;5.18;;
56045;SDS011;41913;51.030;3.706;2023-06-10T04:53:46;4.88;;;4.50;;
56045;SDS011;41913;51.030;3.706;2023-06-10T04:56:12;4.95;;;4.65;;
56045;SDS011;41913;51.030;3.706;2023-06-10T04:58:38;5.43;;;4.93;;
56045;SDS011;41913;51.030;3.706;2023-06-10T05:01:03;4.88;;;4.57;;
56045;SDS011;41913;51.030;3.706;2023-06-10T05:03:29;5.30;;;4.90;;
56045;SDS011;41913;51.030;3.706;2023-06-10T05:05:55;4.38;;;4.07;;
56045;SDS011;41913;51.030;3.706;2023-06-10T05:08:20;4.72;;;4.43;;
56045;SDS011;41913;51.030;3.706;2023-06-10T05:10:46;4.53;;;4.32;;
56045;SDS011;41913;51.030;3.706;2023-06-10T05:13:14;4.55;;;4.22;;
56045;SDS011;41913;51.030;3.706;2023-06-10T05:15:39;4.18;;;3.88;;
56045;SDS011;41913;51.030;3.706;2023-06-10T05:18:09;5.45;;;5.05;;
56045;SDS011;41913;51.030;3.706;2023-06-10T05:20:35;4.43;;;4.15;;
56045;SDS011;41913;51.030;3.706;2023-06-10T05:23:01;4.88;;;4.43;;
56045;SDS011;41913;51.030;3.706;2023-06-10T05:25:28;4.00;;;3.80;;
56045;SDS011;41913;51.030;3.706;2023-06-10T05:27:55;4.93;;;4.55;;
56045;SDS011;41913;51.030;3.706;2023-06-10T05:30:21;4.78;;;4.28;;
56045;SDS011;41913;51.030;3.706;2023-06-10T05:32:47;5.20;;;4.85;;
56045;SDS011;41913;51.030;3.706;2023-06-10T05:35:13;5.05;;;4.75;;
56045;SDS011;41913;51.030;3.706;2023-06-10T05:37:39;4.30;;;4.10;;
56045;SDS011;41913;51.030;3.706;2023-06-10T05:40:05;4.85;;;4.45;;
56045;SDS011;41913;51.030;3.706;2023-06-10T05:42:31;5.07;;;4.78;;
56045;SDS011;41913;51.030;3.706;2023-06-10T05:44:56;4.75;;;4.45;;
56045;SDS011;41913;51.030;3.706;2023-06-10T05:47:22;5.28;;;4.85;;
56045;SDS011;41913;51.030;3.706;2023-06-10T05:49:48;5.07;;;4.57;;
56045;SDS011;41913;51.030;3.706;2023-06-10T05:52:15;5.00;;;4.63;;
56045;SDS011;41913;51.030;3.706;2023-06-10T05:54:40;4.32;;;4.13;;
56045;SDS011;41913;51.030;3.706;2023-06-10T05:57:06;4.60;;;4.32;;
56045;SDS011;41913;51.030;3.706;2023-06-10T05:59:32;5.28;;;4.80;;
56045;SDS011;41913;51.030;3.706;2023-06-10T06:01:58;5.03;;;4.57;;
56045;SDS011;41913;51.030;3.706;2023-06-10T06:04:24;5.30;;;4.80;;
56045;SDS011;41913;51.030;3.706;2023-06-10T06:06:49;5.22;;;4.82;;
56045;SDS011;41913;51.030;3.706;2023-06-10T06:09:15;4.22;;;3.90;;
56045;SDS011;41913;51.030;3.706;2023-06-10T06:11:41;7.07;;;5.15;;
56045;SDS011;41913;51.030;3.706;2023-06-10T06:14:06;4.82;;;4.53;;
56045;SDS011;41913;51.030;3.706;2023-06-10T06:16:32;5.13;;;4.82;;
56045;SDS011;41913;51.030;3.706;2023-06-10T06:18:58;4.75;;;4.45;;
56045;SDS011;41913;51.030;3.706;2023-06-10T06:21:23;4.82;;;4.53;;
56045;SDS011;41913;51.030;3.706;2023-06-10T06:23:49;4.38;;;4.05;;
56045;SDS011;41913;51.030;3.706;2023-06-10T06:26:15;5.45;;;5.05;;
56045;SDS011;41913;51.030;3.706;2023-06-10T06:28:40;5.57;;;5.22;;
56045;SDS011;41913;51.030;3.706;2023-06-10T06:31:06;5.80;;;4.93;;
56045;SDS011;41913;51.030;3.706;2023-06-10T06:33:32;5.35;;;5.05;;
56045;SDS011;41913;51.030;3.706;2023-06-10T06:35:58;4.88;;;4.57;;
56045;SDS011;41913;51.030;3.706;2023-06-10T06:38:25;4.90;;;4.53;;
56045;SDS011;41913;51.030;3.706;2023-06-10T06:40:51;4.53;;;4.22;;
56045;SDS011;41913;51.030;3.706;2023-06-10T06:43:17;4.65;;;4.38;;
56045;SDS011;41913;51.030;3.706;2023-06-10T06:45:43;4.90;;;4.60;;
56045;SDS011;41913;51.030;3.706;2023-06-10T06:48:10;5.00;;;4.60;;
56045;SDS011;41913;51.030;3.706;2023-06-10T06:50:36;5.10;;;4.63;;
56045;SDS011;41913;51.030;3.706;2023-06-10T06:53:02;4.53;;;4.28;;
56045;SDS011;41913;51.030;3.706;2023-06-10T06:55:29;4.97;;;4.60;;
56045;SDS011;41913;51.030;3.706;2023-06-10T06:57:54;5.18;;;4.75;;
56045;SDS011;41913;51.030;3.706;2023-06-10T07:00:21;4.22;;;3.92;;
56045;SDS011;41913;51.030;3.706;2023-06-10T07:02:47;5.45;;;5.03;;
56045;SDS011;41913;51.030;3.706;2023-06-10T07:05:13;4.07;;;3.88;;
56045;SDS011;41913;51.030;3.706;2023-06-10T07:07:39;5.00;;;4.70;;
56045;SDS011;41913;51.030;3.706;2023-06-10T07:10:05;3.90;;;3.60;;
56045;SDS011;41913;51.030;3.706;2023-06-10T07:12:31;4.63;;;4.35;;
56045;SDS011;41913;51.030;3.706;2023-06-10T07:14:56;4.63;;;4.32;;
56045;SDS011;41913;51.030;3.706;2023-06-10T07:17:22;4.43;;;4.22;;
56045;SDS011;41913;51.030;3.706;2023-06-10T07:19:49;4.75;;;4.32;;
56045;SDS011;41913;51.030;3.706;2023-06-10T07:22:16;5.03;;;4.63;;
56045;SDS011;41913;51.030;3.706;2023-06-10T07:24:42;4.55;;;4.32;;
56045;SDS011;41913;51.030;3.706;2023-06-10T07:27:08;4.45;;;4.18;;
56045;SDS011;41913;51.030;3.706;2023-06-10T07:29:35;5.00;;;4.60;;
56045;SDS011;41913;51.030;3.706;2023-06-10T07:32:01;4.50;;;4.22;;
56045;SDS011;41913;51.030;3.706;2023-06-10T07:34:28;4.95;;;4.65;;
56045;SDS011;41913;51.030;3.706;2023-06-10T07:36:53;4.70;;;4.40;;
56045;SDS011;41913;51.030;3.706;2023-06-10T07:39:19;5.25;;;4.95;;
56045;SDS011;41913;51.030;3.706;2023-06-10T07:41:45;4.47;;;4.18;;
56045;SDS011;41913;51.030;3.706;2023-06-10T07:44:10;4.07;;;3.88;;
56045;SDS011;41913;51.030;3.706;2023-06-10T07:46:36;5.70;;;4.25;;
56045;SDS011;41913;51.030;3.706;2023-06-10T07:49:01;5.15;;;4.68;;
56045;SDS011;41913;51.030;3.706;2023-06-10T07:51:27;4.63;;;4.32;;
56045;SDS011;41913;51.030;3.706;2023-06-10T07:53:53;4.78;;;4.38;;
56045;SDS011;41913;51.030;3.706;2023-06-10T07:56:18;4.60;;;4.20;;
56045;SDS011;41913;51.030;3.706;2023-06-10T07:58:46;5.03;;;4.30;;
56045;SDS011;41913;51.030;3.706;2023-06-10T08:01:12;4.57;;;4.18;;
56045;SDS011;41913;51.030;3.706;2023-06-10T08:03:37;4.80;;;4.38;;
56045;SDS011;41913;51.030;3.706;2023-06-10T08:06:03;4.00;;;3.80;;
56045;SDS011;41913;51.030;3.706;2023-06-10T08:08:30;4.97;;;4.68;;
56045;SDS011;41913;51.030;3.706;2023-06-10T08:10:56;4.28;;;3.97;;
56045;SDS011;41913;51.030;3.706;2023-06-10T08:13:22;4.68;;;3.90;;
56045;SDS011;41913;51.030;3.706;2023-06-10T08:15:47;4.40;;;4.20;;
56045;SDS011;41913;51.030;3.706;2023-06-10T08:18:15;5.00;;;4.70;;
56045;SDS011;41913;51.030;3.706;2023-06-10T08:20:41;4.28;;;4.07;;
56045;SDS011;41913;51.030;3.706;2023-06-10T08:23:07;4.55;;;4.25;;
56045;SDS011;41913;51.030;3.706;2023-06-10T08:25:32;4.78;;;4.47;;
56045;SDS011;41913;51.030;3.706;2023-06-10T08:27:58;4.57;;;4.38;;
56045;SDS011;41913;51.030;3.706;2023-06-10T08:30:23;4.35;;;4.05;;
56045;SDS011;41913;51.030;3.706;2023-06-10T08:32:49;3.50;;;3.40;;
56045;SDS011;41913;51.030;3.706;2023-06-10T08:35:16;4.60;;;4.30;;
56045;SDS011;41913;51.030;3.706;2023-06-10T08:37:42;4.10;;;3.90;;
56045;SDS011;41913;51.030;3.706;2023-06-10T08:40:08;3.78;;;3.58;;
56045;SDS011;41913;51.030;3.706;2023-06-10T08:42:43;4.32;;;3.90;;
56045;SDS011;41913;51.030;3.706;2023-06-10T08:45:18;3.60;;;3.40;;
56045;SDS011;41913;51.030;3.706;2023-06-10T08:47:44;4.30;;;4.00;;
56045;SDS011;41913;51.030;3.706;2023-06-10T08:50:13;4.13;;;3.92;;
56045;SDS011;41913;51.030;3.706;2023-06-10T08:52:42;3.63;;;3.33;;
56045;SDS011;41913;51.030;3.706;2023-06-10T08:55:18;4.65;;;4.35;;
56045;SDS011;41913;51.030;3.706;2023-06-10T08:57:51;4.22;;;3.92;;
56045;SDS011;41913;51.030;3.706;2023-06-10T09:00:17;3.88;;;3.70;;
56045;SDS011;41913;51.030;3.706;2023-06-10T09:02:43;3.72;;;3.53;;
56045;SDS011;41913;51.030;3.706;2023-06-10T09:05:09;4.30;;;4.05;;
56045;SDS011;41913;51.030;3.706;2023-06-10T09:07:35;4.15;;;3.95;;
56045;SDS011;41913;51.030;3.706;2023-06-10T09:10:02;4.03;;;3.83;;
56045;SDS011;41913;51.030;3.706;2023-06-10T09:12:31;4.85;;;4.53;;
56045;SDS011;41913;51.030;3.706;2023-06-10T09:14:58;4.13;;;3.92;;
56045;SDS011;41913;51.030;3.706;2023-06-10T09:17:24;4.50;;;4.18;;
56045;SDS011;41913;51.030;3.706;2023-06-10T09:19:49;4.47;;;4.15;;
56045;SDS011;41913;51.030;3.706;2023-06-10T09:22:18;4.53;;;4.22;;
56045;SDS011;41913;51.030;3.706;2023-06-10T09:24:46;4.20;;;3.90;;
56045;SDS011;41913;51.030;3.706;2023-06-10T09:27:12;4.05;;;3.85;;
56045;SDS011;41913;51.030;3.706;2023-06-10T09:30:12;4.32;;;4.13;;
56045;SDS011;41913;51.030;3.706;2023-06-10T09:32:31;3.88;;;3.67;;
56045;SDS011;41913;51.030;3.706;2023-06-10T09:35:03;3.50;;;3.33;;
56045;SDS011;41913;51.030;3.706;2023-06-10T09:37:37;4.30;;;4.07;;
56045;SDS011;41913;51.030;3.706;2023-06-10T09:40:04;4.22;;;4.00;;
56045;SDS011;41913;51.030;3.706;2023-06-10T09:42:32;4.10;;;3.78;;
56045;SDS011;41913;51.030;3.706;2023-06-10T09:45:05;4.10;;;3.90;;
56045;SDS011;41913;51.030;3.706;2023-06-10T09:47:33;4.35;;;4.00;;
56045;SDS011;41913;51.030;3.706;2023-06-10T09:49:59;4.60;;;4.30;;
56045;SDS011;41913;51.030;3.706;2023-06-10T09:52:26;4.07;;;3.38;;
56045;SDS011;41913;51.030;3.706;2023-06-10T09:55:02;3.70;;;3.50;;
56045;SDS011;41913;51.030;3.706;2023-06-10T09:57:32;4.03;;;3.83;;
56045;SDS011;41913;51.030;3.706;2023-06-10T10:00:06;3.80;;;3.60;;
56045;SDS011;41913;51.030;3.706;2023-06-10T10:02:46;3.67;;;3.47;;
56045;SDS011;41913;51.030;3.706;2023-06-10T10:05:14;4.72;;;4.43;;
56045;SDS011;41913;51.030;3.706;2023-06-10T10:07:41;3.83;;;3.63;;
56045;SDS011;41913;51.030;3.706;2023-06-10T10:10:07;3.60;;;3.40;;
56045;SDS011;41913;51.030;3.706;2023-06-10T10:12:34;3.75;;;3.55;;
56045;SDS011;41913;51.030;3.706;2023-06-10T10:15:01;4.38;;;4.13;;
56045;SDS011;41913;51.030;3.706;2023-06-10T10:17:28;4.70;;;4.15;;
56045;SDS011;41913;51.030;3.706;2023-06-10T10:19:57;3.60;;;3.40;;
56045;SDS011;41913;51.030;3.706;2023-06-10T10:22:31;3.67;;;3.47;;
56045;SDS011;41913;51.030;3.706;2023-06-10T10:25:02;3.53;;;3.33;;
56045;SDS011;41913;51.030;3.706;2023-06-10T10:30:16;3.40;;;3.22;;
56045;SDS011;41913;51.030;3.706;2023-06-10T10:33:31;4.50;;;4.20;;
56045;SDS011;41913;51.030;3.706;2023-06-10T10:35:34;3.72;;;3.53;;
56045;SDS011;41913;51.030;3.706;2023-06-10T10:38:01;3.95;;;3.75;;
56045;SDS011;41913;51.030;3.706;2023-06-10T10:40:27;3.25;;;3.05;;
56045;SDS011;41913;51.030;3.706;2023-06-10T10:42:55;2.95;;;2.85;;
56045;SDS011;41913;51.030;3.706;2023-06-10T10:45:22;7.78;;;3.75;;
56045;SDS011;41913;51.030;3.706;2023-06-10T10:47:52;3.47;;;3.28;;
56045;SDS011;41913;51.030;3.706;2023-06-10T10:50:20;3.65;;;3.50;;
56045;SDS011;41913;51.030;3.706;2023-06-10T10:52:55;3.70;;;3.50;;
56045;SDS011;41913;51.030;3.706;2023-06-10T10:55:26;3.45;;;3.15;;
56045;SDS011;41913;51.030;3.706;2023-06-10T10:57:56;3.67;;;3.47;;
56045;SDS011;41913;51.030;3.706;2023-06-10T11:00:30;3.97;;;3.70;;
56045;SDS011;41913;51.030;3.706;2023-06-10T11:02:58;3.88;;;3.28;;
56045;SDS011;41913;51.030;3.706;2023-06-10T11:05:36;3.42;;;3.25;;
56045;SDS011;41913;51.030;3.706;2023-06-10T11:08:03;4.10;;;3.83;;
56045;SDS011;41913;51.030;3.706;2023-06-10T11:10:31;3.88;;;3.58;;
56045;SDS011;41913;51.030;3.706;2023-06-10T11:12:58;4.30;;;3.95;;
56045;SDS011;41913;51.030;3.706;2023-06-10T11:15:28;3.53;;;3.33;;
56045;SDS011;41913;51.030;3.706;2023-06-10T11:18:14;3.42;;;3.22;;
56045;SDS011;41913;51.030;3.706;2023-06-10T11:23:29;4.03;;;3.70;;
56045;SDS011;41913;51.030;3.706;2023-06-10T11:26:11;4.05;;;3.75;;
56045;SDS011;41913;51.030;3.706;2023-06-10T11:31:22;3.55;;;3.45;;
56045;SDS011;41913;51.030;3.706;2023-06-10T11:33:56;3.17;;;3.00;;
56045;SDS011;41913;51.030;3.706;2023-06-10T11:36:23;4.07;;;3.88;;
56045;SDS011;41913;51.030;3.706;2023-06-10T11:38:52;3.35;;;3.15;;
56045;SDS011;41913;51.030;3.706;2023-06-10T11:41:20;3.65;;;3.28;;
56045;SDS011;41913;51.030;3.706;2023-06-10T11:43:46;3.80;;;3.60;;
56045;SDS011;41913;51.030;3.706;2023-06-10T11:46:15;3.35;;;3.15;;
56045;SDS011;41913;51.030;3.706;2023-06-10T11:48:54;3.45;;;3.25;;
56045;SDS011;41913;51.030;3.706;2023-06-10T11:51:21;3.70;;;3.42;;
56045;SDS011;41913;51.030;3.706;2023-06-10T11:53:48;3.90;;;3.70;;
56045;SDS011;41913;51.030;3.706;2023-06-10T11:56:21;3.03;;;2.92;;
56045;SDS011;41913;51.030;3.706;2023-06-10T11:58:58;2.88;;;2.67;;
56045;SDS011;41913;51.030;3.706;2023-06-10T12:01:32;3.67;;;3.47;;
56045;SDS011;41913;51.030;3.706;2023-06-10T12:04:01;3.88;;;3.60;;
56045;SDS011;41913;51.030;3.706;2023-06-10T12:06:40;3.77;;;3.47;;
56045;SDS011;41913;51.030;3.706;2023-06-10T12:09:19;3.28;;;3.17;;
56045;SDS011;41913;51.030;3.706;2023-06-10T12:17:20;3.50;;;3.28;;
56045;SDS011;41913;51.030;3.706;2023-06-10T12:19:48;2.88;;;2.75;;
56045;SDS011;41913;51.030;3.706;2023-06-10T12:22:14;2.90;;;2.80;;
56045;SDS011;41913;51.030;3.706;2023-06-10T12:27:28;3.08;;;2.97;;
56045;SDS011;41913;51.030;3.706;2023-06-10T12:29:56;3.60;;;3.40;;
56045;SDS011;41913;51.030;3.706;2023-06-10T12:32:43;3.60;;;3.15;;
56045;SDS011;41913;51.030;3.706;2023-06-10T12:35:10;2.75;;;2.65;;
56045;SDS011;41913;51.030;3.706;2023-06-10T12:37:38;3.17;;;2.97;;
56045;SDS011;41913;51.030;3.706;2023-06-10T12:40:07;3.70;;;3.50;;
56045;SDS011;41913;51.030;3.706;2023-06-10T12:42:35;2.90;;;2.72;;
56045;SDS011;41913;51.030;3.706;2023-06-10T12:45:02;3.40;;;3.13;;
56045;SDS011;41913;51.030;3.706;2023-06-10T12:47:32;3.78;;;3.47;;
56045;SDS011;41913;51.030;3.706;2023-06-10T12:50:06;3.20;;;3.10;;
56045;SDS011;41913;51.030;3.706;2023-06-10T12:52:32;2.92;;;2.83;;
56045;SDS011;41913;51.030;3.706;2023-06-10T12:54:58;3.50;;;3.25;;
56045;SDS011;41913;51.030;3.706;2023-06-10T12:57:25;3.03;;;2.92;;
56045;SDS011;41913;51.030;3.706;2023-06-10T12:59:51;3.17;;;3.03;;
56045;SDS011;41913;51.030;3.706;2023-06-10T13:02:22;3.33;;;3.13;;
56045;SDS011;41913;51.030;3.706;2023-06-10T13:04:49;3.42;;;3.20;;
56045;SDS011;41913;51.030;3.706;2023-06-10T13:07:16;3.55;;;3.35;;
56045;SDS011;41913;51.030;3.706;2023-06-10T13:09:42;3.08;;;2.88;;
56045;SDS011;41913;51.030;3.706;2023-06-10T13:12:08;3.47;;;3.28;;
56045;SDS011;41913;51.030;3.706;2023-06-10T13:14:35;3.55;;;3.35;;
56045;SDS011;41913;51.030;3.706;2023-06-10T13:17:02;3.35;;;3.15;;
56045;SDS011;41913;51.030;3.706;2023-06-10T13:19:31;3.28;;;3.08;;
56045;SDS011;41913;51.030;3.706;2023-06-10T13:21:57;3.58;;;3.35;;
56045;SDS011;41913;51.030;3.706;2023-06-10T13:24:23;2.92;;;2.83;;
56045;SDS011;41913;51.030;3.706;2023-06-10T13:26:48;3.40;;;3.30;;
56045;SDS011;41913;51.030;3.706;2023-06-10T13:29:14;3.67;;;3.38;;
56045;SDS011;41913;51.030;3.706;2023-06-10T13:31:40;3.25;;;3.15;;
56045;SDS011;41913;51.030;3.706;2023-06-10T13:34:07;2.58;;;2.47;;
56045;SDS011;41913;51.030;3.706;2023-06-10T13:36:33;3.55;;;3.35;;
56045;SDS011;41913;51.030;3.706;2023-06-10T13:38:58;3.28;;;3.05;;
56045;SDS011;41913;51.030;3.706;2023-06-10T13:41:24;2.85;;;2.75;;
56045;SDS011;41913;51.030;3.706;2023-06-10T13:43:53;3.60;;;3.40;;
56045;SDS011;41913;51.030;3.706;2023-06-10T13:46:19;3.33;;;3.13;;
56045;SDS011;41913;51.030;3.706;2023-06-10T13:48:46;3.30;;;3.10;;
56045;SDS011;41913;51.030;3.706;2023-06-10T13:51:12;3.97;;;3.17;;
56045;SDS011;41913;51.030;3.706;2023-06-10T13:53:38;2.90;;;2.80;;
56045;SDS011;41913;51.030;3.706;2023-06-10T13:56:03;3.90;;;3.45;;
56045;SDS011;41913;51.030;3.706;2023-06-10T13:58:29;3.08;;;2.85;;
56045;SDS011;41913;51.030;3.706;2023-06-10T14:00:55;3.03;;;2.92;;
56045;SDS011;41913;51.030;3.706;2023-06-10T14:03:21;3.22;;;3.13;;
56045;SDS011;41913;51.030;3.706;2023-06-10T14:05:46;3.10;;;3.00;;
56045;SDS011;41913;51.030;3.706;2023-06-10T14:08:12;3.15;;;3.00;;
56045;SDS011;41913;51.030;3.706;2023-06-10T14:10:38;3.40;;;3.20;;
56045;SDS011;41913;51.030;3.706;2023-06-10T14:13:05;3.75;;;3.55;;
56045;SDS011;41913;51.030;3.706;2023-06-10T14:15:31;3.05;;;2.95;;
56045;SDS011;41913;51.030;3.706;2023-06-10T14:17:58;3.00;;;2.90;;
56045;SDS011;41913;51.030;3.706;2023-06-10T14:20:24;3.80;;;3.25;;
56045;SDS011;41913;51.030;3.706;2023-06-10T14:22:51;3.40;;;3.20;;
56045;SDS011;41913;51.030;3.706;2023-06-10T14:25:17;3.22;;;3.13;;
56045;SDS011;41913;51.030;3.706;2023-06-10T14:27:43;3.80;;;3.60;;
56045;SDS011;41913;51.030;3.706;2023-06-10T14:30:09;3.75;;;3.55;;
56045;SDS011;41913;51.030;3.706;2023-06-10T14:32:35;3.03;;;2.92;;
56045;SDS011;41913;51.030;3.706;2023-06-10T14:35:00;4.30;;;3.05;;
56045;SDS011;41913;51.030;3.706;2023-06-10T14:37:26;3.17;;;3.08;;
56045;SDS011;41913;51.030;3.706;2023-06-10T14:39:52;3.85;;;3.65;;
56045;SDS011;41913;51.030;3.706;2023-06-10T14:42:18;3.47;;;3.28;;
56045;SDS011;41913;51.030;3.706;2023-06-10T14:44:43;3.05;;;2.95;;
56045;SDS011;41913;51.030;3.706;2023-06-10T14:47:09;3.45;;;3.25;;
56045;SDS011;41913;51.030;3.706;2023-06-10T14:49:35;5.22;;;3.60;;
56045;SDS011;41913;51.030;3.706;2023-06-10T14:52:00;3.33;;;3.15;;
56045;SDS011;41913;51.030;3.706;2023-06-10T14:54:26;3.40;;;3.20;;
56045;SDS011;41913;51.030;3.706;2023-06-10T14:56:52;3.03;;;2.92;;
56045;SDS011;41913;51.030;3.706;2023-06-10T14:59:17;3.35;;;3.20;;
56045;SDS011;41913;51.030;3.706;2023-06-10T15:01:43;3.75;;;3.55;;
56045;SDS011;41913;51.030;3.706;2023-06-10T15:04:09;3.40;;;3.20;;
56045;SDS011;41913;51.030;3.706;2023-06-10T15:06:34;3.00;;;2.90;;
56045;SDS011;41913;51.030;3.706;2023-06-10T15:09:00;2.95;;;2.85;;